Aérodrome :
LOGIN :

S'inscrire | Disclaimer

   EN    FR    IT 

 










Légende :    VFR   VFR Marginal   IFR   IFR Intensif   IFR Très Intensif
Visi : 
Plafond : 
>= 8 km
>= 3000ft
5 à 8 km
1000 à 3000 ft
1500m à 5 km
500 à 1000 ft
800 à 1500m
200 à 500 ft
< 800m
< 200 ft
Symboles :   Orages  Brouillard  Fortes neiges  Fortes précipitations  Vent > 20 kt
SIGMETs :   Divers  Orages  Givrage  Turbulence  Onde Orograph.  Cendres Volcan.







- Altitude de l'aérodrome : 302 ft
- Code IATA : CGN


EDDK - Cologne Bonn

DERNIER METAR :
  • 170550Z 12004KT 080V150 CAVOK 17/15 Q1017 NOSIG

METARs EXPIRÉS :
  • 170520Z 11004KT 070V170 CAVOK 17/15 Q1017 NOSIG
  • 170450Z 12005KT 060V160 CAVOK 16/15 Q1017 NOSIG
  • 170420Z VRB02KT 9999 MIFG NSC 16/15 Q1017 NOSIG
  • 170350Z 00000KT 9999 MIFG NSC 15/14 Q1018 NOSIG
  • 170320Z 11003KT 080V150 9999 MIFG NSC 16/15 Q1018 NOSIG
  • 170302Z VRB02KT 9999 MIFG NSC 16/15 Q1018 NOSIG
  • 170259Z VRB02KT 9999 MIFG NSC 16/15 Q1018 NOSIG

TAF TAF EDDK
Valide du 17 à 06h jusqu'au 18 à 12h UTC


170500Z 1706/1812 13005KT 9999 SCT045
TEMPO 1710/1718 20010KT RA
Pas de NOTAMs connus pour ce terrain.



MET'MAP, la Météo Aéronautique d'un coup d'oeil ! - Copyright ORBIFLY Décembre 2007 - Disclaimer

ORBIFLY MET'MAP TEAM :

Programmation & Développement : Alexandra Zaïnal
Conception & Développement : Baudouin d'Aumeries
Co-Programmation & Développement : Marc-Olivier Méhu
Soutien technique & logistique : Manuel Goepfert

Contact : metmap@orbifly.com




SOURCES & CREDITS :

   NOAA